Time,TemperatureF,DewpointF,PressureIn,WindDirection,WindDirectionDegrees,WindSpeedMPH,WindSpeedGustMPH,Humidity,HourlyPrecipIn,Conditions,Clouds,dailyrainin,SoftwareType,DateUTC
2013-05-09 09:10:00,74.9,73.7,30.09,ENE,76,10.0,16.0,96,0.05,,,3.08,Wunderground v.1.15,2013-05-09 13:10:00,
2013-05-09 09:20:00,74.9,73.7,30.09,ENE,62,12.0,16.0,96,0.00,,,3.09,Wunderground v.1.15,2013-05-09 13:20:00,
2013-05-09 09:30:00,75.3,74.1,30.09,NNE,33,9.0,9.0,96,0.00,,,3.09,Wunderground v.1.15,2013-05-09 13:30:00,
2013-05-09 09:40:00,75.3,74.1,30.09,NE,49,11.0,13.0,96,0.04,,,3.10,Wunderground v.1.15,2013-05-09 13:40:00,
2013-05-09 09:50:00,74.9,73.7,30.09,NE,44,11.0,11.0,96,0.06,,,3.11,Wunderground v.1.15,2013-05-09 13:50:00,
2013-05-09 10:00:00,75.4,74.5,30.09,ENE,63,8.0,13.0,97,0.00,,,3.11,Wunderground v.1.15,2013-05-09 14:00:00,
2013-05-09 10:10:00,76.0,74.8,30.09,NNE,24,9.0,12.0,96,0.00,,,3.11,Wunderground v.1.15,2013-05-09 14:10:00,
2013-05-09 10:20:00,76.1,74.9,30.09,ENE,69,9.0,11.0,96,0.00,,,3.12,Wunderground v.1.15,2013-05-09 14:20:00,
2013-05-09 10:30:00,76.3,75.1,30.09,NNE,27,9.0,9.0,96,0.00,,,3.12,Wunderground v.1.15,2013-05-09 14:30:00,
2013-05-09 10:40:00,77.0,75.8,30.09,ENE,65,8.0,16.0,96,0.12,,,3.14,Wunderground v.1.15,2013-05-09 14:40:00,
2013-05-09 10:50:00,77.0,75.8,30.09,ENE,77,10.0,10.0,96,0.09,,,3.16,Wunderground v.1.15,2013-05-09 14:50:00,
2013-05-09 11:00:00,76.5,75.3,30.08,ENE,71,11.0,11.0,96,0.06,,,3.16,Wunderground v.1.15,2013-05-09 15:00:00,
2013-05-09 11:10:00,77.0,75.8,30.08,NE,54,10.0,14.0,96,0.00,,,3.16,Wunderground v.1.15,2013-05-09 15:10:00,
2013-05-09 11:20:00,76.8,75.6,30.08,ENE,64,14.0,14.0,96,0.00,,,3.16,Wunderground v.1.15,2013-05-09 15:20:00,
2013-05-09 11:30:00,76.7,75.5,30.09,East,82,14.0,21.0,96,0.00,,,3.16,Wunderground v.1.15,2013-05-09 15:30:00,
2013-05-09 11:40:00,77.2,75.7,30.08,NE,46,15.0,16.0,95,0.00,,,3.16,Wunderground v.1.15,2013-05-09 15:40:00,
2013-05-09 11:50:00,79.0,76.8,30.08,ESE,103,12.0,14.0,93,0.00,,,3.16,Wunderground v.1.15,2013-05-09 15:50:00,
2013-05-09 12:00:00,79.2,74.3,30.07,ENE,63,14.0,21.0,85,0.00,,,3.16,Wunderground v.1.15,2013-05-09 16:00:00,
2013-05-09 12:10:00,79.4,73.4,30.07,ENE,68,15.0,17.0,82,0.00,,,3.16,Wunderground v.1.15,2013-05-09 16:10:00,
2013-05-09 12:20:00,79.2,72.1,30.07,East,80,13.0,13.0,79,0.00,,,3.16,Wunderground v.1.15,2013-05-09 16:20:00,
2013-05-09 12:30:00,79.0,71.2,30.06,NE,53,13.0,14.0,77,0.00,,,3.16,Wunderground v.1.15,2013-05-09 16:30:00,
2013-05-09 12:40:00,79.4,71.9,30.07,ENE,69,14.0,14.0,78,0.00,,,3.16,Wunderground v.1.15,2013-05-09 16:40:00,
2013-05-09 12:50:00,79.0,71.9,30.07,East,86,14.0,15.0,79,0.00,,,3.16,Wunderground v.1.15,2013-05-09 16:50:00,
2013-05-09 13:00:00,81.1,72.0,30.06,NE,54,15.0,15.0,74,0.00,,,3.16,Wunderground v.1.15,2013-05-09 17:00:00,
2013-05-09 13:10:00,81.6,71.3,30.06,East,80,15.0,17.0,71,0.00,,,3.16,Wunderground v.1.15,2013-05-09 17:10:00,
2013-05-09 13:20:00,80.9,71.4,30.06,ENE,72,15.0,15.0,73,0.00,,,3.16,Wunderground v.1.15,2013-05-09 17:20:00,
2013-05-09 13:30:00,80.7,71.6,30.06,East,88,14.0,14.0,74,0.00,,,3.16,Wunderground v.1.15,2013-05-09 17:30:00,
2013-05-09 13:40:00,80.5,71.8,30.05,ENE,75,13.0,13.0,75,0.00,,,3.16,Wunderground v.1.15,2013-05-09 17:40:00,
2013-05-09 13:50:00,80.3,72.0,30.05,ESE,107,13.0,13.0,76,0.00,,,3.16,Wunderground v.1.15,2013-05-09 17:50:00,
2013-05-09 14:00:00,80.7,71.6,30.04,ENE,63,14.0,14.0,74,0.00,,,3.16,Wunderground v.1.15,2013-05-09 18:00:00,
2013-05-09 14:10:00,80.5,71.8,30.04,ENE,74,14.0,20.0,75,0.00,,,3.16,Wunderground v.1.15,2013-05-09 18:10:00,
2013-05-09 14:20:00,80.5,71.8,30.04,ENE,67,14.0,14.0,75,0.00,,,3.16,Wunderground v.1.15,2013-05-09 18:20:00,
2013-05-09 14:30:00,78.8,72.8,30.03,ENE,72,16.0,16.0,82,0.00,,,3.16,Wunderground v.1.15,2013-05-09 18:30:00,
2013-05-09 14:40:00,77.2,73.7,30.03,ENE,75,15.0,15.0,89,0.00,,,3.17,Wunderground v.1.15,2013-05-09 18:40:00,
2013-05-09 14:50:00,77.9,74.4,30.03,NE,48,12.0,12.0,89,0.00,,,3.17,Wunderground v.1.15,2013-05-09 18:50:00,
2013-05-09 15:00:00,77.2,74.0,30.03,ENE,61,13.0,17.0,90,0.00,,,3.17,Wunderground v.1.15,2013-05-09 19:00:00,
2013-05-09 15:10:00,77.4,74.6,30.02,NE,46,13.0,13.0,91,0.00,,,3.17,Wunderground v.1.15,2013-05-09 19:10:00,
2013-05-09 15:20:00,77.7,74.5,30.02,East,90,13.0,13.0,90,0.00,,,3.17,Wunderground v.1.15,2013-05-09 19:20:00,
2013-05-09 15:30:00,78.5,74.6,30.02,ENE,77,13.0,18.0,88,0.00,,,3.17,Wunderground v.1.15,2013-05-09 19:30:00,
2013-05-09 15:40:00,78.8,73.9,30.02,East,82,16.0,16.0,85,0.00,,,3.17,Wunderground v.1.15,2013-05-09 19:40:00,
2013-05-09 15:50:00,79.2,73.2,30.02,NE,42,15.0,18.0,82,0.00,,,3.17,Wunderground v.1.15,2013-05-09 19:50:00,
2013-05-09 16:00:00,79.0,72.3,30.01,ENE,61,14.0,14.0,80,0.00,,,3.17,Wunderground v.1.15,2013-05-09 20:00:00,
2013-05-09 16:10:00,79.8,73.1,30.01,ENE,72,10.0,17.0,80,0.00,,,3.17,Wunderground v.1.15,2013-05-09 20:10:00,
2013-05-09 16:20:00,79.4,72.7,30.01,ENE,69,13.0,14.0,80,0.00,,,3.17,Wunderground v.1.15,2013-05-09 20:20:00,
2013-05-09 16:30:00,78.8,72.1,30.02,ENE,60,14.0,14.0,80,0.00,,,3.17,Wunderground v.1.15,2013-05-09 20:30:00,
2013-05-09 16:40:00,78.8,72.5,30.02,East,92,14.0,14.0,81,0.00,,,3.17,Wunderground v.1.15,2013-05-09 20:40:00,
2013-05-09 16:50:00,79.4,72.3,30.02,East,94,13.0,17.0,79,0.00,,,3.17,Wunderground v.1.15,2013-05-09 20:50:00,
2013-05-09 17:00:00,79.9,72.4,30.01,ESE,115,13.0,19.0,78,0.00,,,3.17,Wunderground v.1.15,2013-05-09 21:00:00,
2013-05-09 17:10:00,79.2,72.1,30.01,ENE,65,13.0,14.0,79,0.00,,,3.17,Wunderground v.1.15,2013-05-09 21:10:00,
2013-05-09 17:20:00,79.2,72.9,30.01,East,99,11.0,11.0,81,0.00,,,3.17,Wunderground v.1.15,2013-05-09 21:20:00,
2013-05-09 17:30:00,78.8,72.5,30.02,East,82,14.0,15.0,81,0.00,,,3.17,Wunderground v.1.15,2013-05-09 21:30:00,
2013-05-09 17:40:00,78.8,72.1,30.02,ENE,78,13.0,15.0,80,0.00,,,3.17,Wunderground v.1.15,2013-05-09 21:40:00,
2013-05-09 17:50:00,78.5,72.2,30.02,East,85,13.0,19.0,81,0.00,,,3.17,Wunderground v.1.15,2013-05-09 21:50:00,
2013-05-09 18:00:00,78.3,72.3,30.03,East,86,12.0,14.0,82,0.00,,,3.17,Wunderground v.1.15,2013-05-09 22:00:00,
2013-05-09 18:10:00,78.1,72.2,30.03,ENE,74,12.0,12.0,82,0.00,,,3.17,Wunderground v.1.15,2013-05-09 22:10:00,
2013-05-09 18:20:00,78.1,72.2,30.03,NE,49,12.0,18.0,82,0.00,,,3.17,Wunderground v.1.15,2013-05-09 22:20:00,
2013-05-09 18:30:00,77.9,72.3,30.04,East,82,11.0,12.0,83,0.00,,,3.17,Wunderground v.1.15,2013-05-09 22:30:00,
2013-05-09 18:40:00,77.9,72.3,30.04,East,86,12.0,12.0,83,0.00,,,3.17,Wunderground v.1.15,2013-05-09 22:40:00,
2013-05-09 18:50:00,77.7,72.1,30.04,ENE,78,11.0,12.0,83,0.00,,,3.17,Wunderground v.1.15,2013-05-09 22:50:00,
2013-05-09 19:00:00,77.9,72.3,30.05,ENE,63,11.0,14.0,83,0.00,,,3.17,Wunderground v.1.15,2013-05-09 23:00:00,
2013-05-09 19:10:00,77.9,72.7,30.05,East,81,11.0,11.0,84,0.00,,,3.17,Wunderground v.1.15,2013-05-09 23:10:00,
2013-05-09 19:20:00,77.9,72.7,30.05,East,100,10.0,12.0,84,0.00,,,3.17,Wunderground v.1.15,2013-05-09 23:20:00,
2013-05-09 19:30:00,77.7,72.5,30.05,ENE,75,10.0,14.0,84,0.00,,,3.17,Wunderground v.1.15,2013-05-09 23:30:00,
2013-05-09 19:40:00,77.7,72.5,30.06,ENE,57,11.0,11.0,84,0.00,,,3.17,Wunderground v.1.15,2013-05-09 23:40:00,
2013-05-09 19:50:00,77.6,71.7,30.06,ENE,64,11.0,11.0,82,0.00,,,3.17,Wunderground v.1.15,2013-05-09 23:50:00,
2013-05-09 20:00:00,77.6,71.3,30.06,East,80,11.0,11.0,81,0.00,,,3.17,Wunderground v.1.15,2013-05-10 00:00:00,